| time (UTC) | temp F | wind direction | speed knots | gust knots | rain 1hr in | rain 24hr in | rain mn in | humidity % | barometer mb |
| 20260507090538 | 49 | 342 | 6.1 | 10.4 | 0.21 | 0.44 | 0.34 | 98 | 1006.9 |
| 20260507090045 | 50 | 323 | 6.1 | 9.6 | 0.24 | 0.42 | 0.32 | 98 | 1007.0 |
| 20260507085538 | 49 | 340 | 4.3 | 7.0 | 0.24 | 0.41 | 0.31 | 98 | 1007.1 |
| 20260507085038 | 50 | 313 | 3.5 | 7.0 | 0.23 | 0.40 | 0.30 | 98 | 1006.9 |
| 20260507084546 | 50 | 340 | 3.5 | 8.7 | 0.23 | 0.40 | 0.30 | 98 | 1007.0 |
| 20260507084038 | 50 | 344 | 2.6 | 10.4 | 0.25 | 0.40 | 0.30 | 98 | 1006.5 |
| 20260507083538 | 50 | 336 | 5.2 | 10.4 | 0.20 | 0.35 | 0.25 | 98 | 1007.1 |
| 20260507083047 | 50 | 273 | 6.1 | 9.6 | 0.17 | 0.32 | 0.22 | 97 | 1007.9 |
| 20260507082536 | 50 | 285 | 4.3 | 7.0 | 0.15 | 0.30 | 0.20 | 98 | 1007.6 |
| 20260507082038 | 50 | 275 | 4.3 | 8.7 | 0.12 | 0.27 | 0.17 | 98 | 1007.4 |
| 20260507081543 | 50 | 303 | 5.2 | 8.7 | 0.11 | 0.26 | 0.16 | 98 | 1007.0 |
| 20260507081039 | 50 | 302 | 4.3 | 7.0 | 0.10 | 0.25 | 0.15 | 98 | 1006.6 |
| 20260507080538 | 50 | 300 | 1.7 | 7.0 | 0.08 | 0.22 | 0.12 | 98 | 1006.8 |
| 20260507080051 | 50 | 277 | 2.6 | 7.8 | 0.04 | 0.18 | 0.08 | 98 | 1007.0 |
| 20260507075538 | 50 | 275 | 3.5 | 7.8 | 0.03 | 0.17 | 0.07 | 98 | 1007.1 |
| 20260507075038 | 50 | 281 | 3.5 | 7.0 | 0.03 | 0.17 | 0.07 | 98 | 1007.2 |
| 20260507074554 | 49 | 249 | 3.5 | 9.6 | 0.03 | 0.17 | 0.07 | 97 | 1007.2 |
| 20260507074038 | 49 | 243 | 6.1 | 11.3 | 0.01 | 0.15 | 0.05 | 97 | 1007.2 |
| 20260507073538 | 50 | 227 | 6.1 | 11.3 | 0.01 | 0.15 | 0.05 | 97 | 1007.6 |
| 20260507073043 | 51 | 243 | 4.3 | 8.7 | 0.01 | 0.15 | 0.05 | 98 | 1006.9 |
| 20260507072538 | 51 | 243 | 3.5 | 7.8 | 0.01 | 0.15 | 0.05 | 98 | 1006.6 |
| 20260507072038 | 50 | 266 | 2.6 | 7.0 | 0.02 | 0.15 | 0.05 | 97 | 1006.6 |
| 20260507071543 | 51 | 191 | 1.7 | 7.8 | 0.05 | 0.15 | 0.05 | 97 | 1006.4 |
| 20260507071040 | 51 | 239 | 2.6 | 7.8 | 0.05 | 0.15 | 0.05 | 97 | 1006.4 |
| 20260507070537 | 51 | 236 | 2.6 | 7.0 | 0.04 | 0.14 | 0.04 | 98 | 1006.4 |
| 20260507070052 | 51 | 194 | 3.5 | 7.0 | 0.04 | 0.14 | 0.04 | 97 | 1006.4 |
| 20260507065539 | 51 | 205 | 3.5 | 7.0 | 0.04 | 0.14 | 0.04 | 97 | 1006.4 |
| 20260507065037 | 51 | 180 | 2.6 | 7.0 | 0.04 | 0.14 | 0.04 | 97 | 1006.4 |
| 20260507064605 | 51 | 195 | 2.6 | 5.2 | 0.04 | 0.14 | 0.04 | 97 | 1006.5 |
| 20260507064036 | 51 | 223 | 2.6 | 5.2 | 0.04 | 0.14 | 0.04 | 98 | 1006.2 |
| 20260507063539 | 51 | 187 | 1.7 | 5.2 | 0.04 | 0.14 | 0.04 | 97 | 1006.4 |
| 20260507063053 | 51 | 204 | 2.6 | 5.2 | 0.04 | 0.14 | 0.04 | 97 | 1006.3 |
| 20260507062536 | 51 | 218 | 2.6 | 5.2 | 0.04 | 0.14 | 0.04 | 98 | 1006.4 |
| 20260507062038 | 51 | 195 | 1.7 | 5.2 | 0.03 | 0.13 | 0.03 | 98 | 1006.2 |
| 20260507061546 | 51 | 190 | 1.7 | 5.2 | 0.00 | 0.10 | 0.00 | 97 | 1006.5 |
| 20260507061039 | 51 | 188 | 1.7 | 4.3 | 0.00 | 0.10 | 0.00 | 97 | 1006.6 |
| 20260507060538 | 51 | 244 | 1.7 | 7.0 | 0.00 | 0.10 | 0.00 | 97 | 1006.5 |
| 20260507060045 | 51 | 273 | 2.6 | 7.0 | 0.00 | 0.10 | 0.00 | 98 | 1006.6 |
| 20260507055536 | 51 | 208 | 2.6 | 7.0 | 0.00 | 0.10 | 0.00 | 98 | 1006.5 |
| 20260507055037 | 50 | 242 | 2.6 | 7.0 | 0.00 | 0.10 | 0.00 | 97 | 1006.6 |
| 20260507054544 | 50 | 177 | 3.5 | 7.0 | 0.00 | 0.10 | 0.00 | 97 | 1006.8 |
| 20260507054039 | 50 | 161 | 3.5 | 7.8 | 0.00 | 0.10 | 0.00 | 97 | 1006.8 |
| 20260507053539 | 50 | 184 | 1.7 | 7.8 | 0.00 | 0.10 | 0.00 | 97 | 1006.7 |
| 20260507053047 | 50 | 271 | 2.6 | 8.7 | 0.00 | 0.10 | 0.00 | 97 | 1007.0 |
| 20260507052541 | 50 | 213 | 2.6 | 8.7 | 0.00 | 0.10 | 0.00 | 97 | 1006.9 |
| 20260507052039 | 50 | 188 | 3.5 | 7.8 | 0.00 | 0.10 | 0.00 | 97 | 1007.1 |
| 20260507051549 | 50 | 211 | 3.5 | 7.8 | 0.00 | 0.10 | 0.00 | 97 | 1007.2 |
| 20260507051055 | 50 | 179 | 2.6 | 7.8 | 0.00 | 0.10 | 0.00 | 97 | 1007.5 |
| 20260507050538 | 50 | 206 | 3.5 | 7.8 | 0.00 | 0.10 | 0.00 | 97 | 1007.6 |
| 20260507050047 | 50 | 173 | 4.3 | 7.8 | 0.00 | 0.10 | 0.00 | 97 | 1007.6 |
| 20260507045538 | 50 | 278 | 3.5 | 7.8 | 0.00 | 0.10 | 0.00 | 97 | 1007.6 |
| 20260507045037 | 50 | 195 | 4.3 | 7.8 | 0.00 | 0.10 | 0.00 | 97 | 1007.6 |
| 20260507044546 | 50 | 269 | 3.5 | 7.8 | 0.00 | 0.10 | 0.00 | 97 | 1007.8 |
| 20260507044038 | 50 | 275 | 2.6 | 7.8 | 0.00 | 0.10 | 0.00 | 97 | 1007.6 |
| 20260507043538 | 50 | 259 | 3.5 | 9.6 | 0.00 | 0.10 | 0.00 | 97 | 1007.6 |
| 20260507043045 | 50 | 261 | 5.2 | 12.2 | 0.00 | 0.10 | 0.00 | 97 | 1007.8 |
| 20260507042538 | 50 | 311 | 3.5 | 12.2 | 0.00 | 0.10 | 0.00 | 97 | 1007.7 |
| 20260507042038 | 49 | 184 | 4.3 | 8.7 | 0.00 | 0.10 | 0.00 | 97 | 1007.7 |
| 20260507041602 | 50 | 286 | 6.1 | 12.2 | 0.00 | 0.10 | 0.00 | 96 | 1008.0 |
| 20260507041042 | 50 | 187 | 5.2 | 12.2 | 0.00 | 0.10 | 0.00 | 96 | 1007.6 |
| 20260507040538 | 51 | 266 | 4.3 | 11.3 | 0.00 | 0.10 | 0.00 | 97 | 1007.7 |
| 20260507040056 | 51 | 185 | 5.2 | 11.3 | 0.00 | 0.10 | 0.00 | 97 | 1007.4 |
| 20260507035538 | 51 | 212 | 4.3 | 11.3 | 0.00 | 0.10 | 0.10 | 97 | 1007.4 |
| 20260507035038 | 51 | 182 | 6.1 | 11.3 | 0.00 | 0.10 | 0.10 | 97 | 1007.4 |
| 20260507034550 | 51 | 223 | 5.2 | 13.0 | 0.00 | 0.10 | 0.10 | 97 | 1007.4 |
| 20260507034037 | 51 | 188 | 5.2 | 13.0 | 0.00 | 0.10 | 0.10 | 97 | 1007.5 |
| 20260507033541 | 51 | 197 | 6.1 | 13.0 | 0.00 | 0.10 | 0.10 | 97 | 1007.6 |
| 20260507033047 | 51 | 181 | 4.3 | 13.0 | 0.00 | 0.10 | 0.10 | 97 | 1007.7 |
| 20260507032536 | 51 | 186 | 5.2 | 13.0 | 0.00 | 0.10 | 0.10 | 97 | 1007.8 |
| 20260507032038 | 51 | 220 | 4.3 | 14.8 | 0.00 | 0.10 | 0.10 | 97 | 1007.9 |
| 20260507031546 | 52 | 217 | 5.2 | 14.8 | 0.00 | 0.10 | 0.10 | 97 | 1007.4 |
| 20260507031037 | 52 | 202 | 5.2 | 13.9 | 0.00 | 0.10 | 0.10 | 97 | 1007.4 |
| 20260507030538 | 52 | 205 | 6.1 | 17.4 | 0.00 | 0.10 | 0.10 | 97 | 1007.5 |
| 20260507030044 | 52 | 169 | 6.1 | 17.4 | 0.00 | 0.10 | 0.10 | 97 | 1007.8 |
| 20260507025535 | 52 | 175 | 7.0 | 15.6 | 0.00 | 0.10 | 0.10 | 97 | 1007.6 |
| 20260507025038 | 52 | 198 | 7.8 | 20.9 | 0.00 | 0.10 | 0.10 | 97 | 1007.5 |
| 20260507024542 | 52 | 211 | 7.8 | 22.6 | 0.00 | 0.10 | 0.10 | 97 | 1007.6 |
| 20260507024037 | 52 | 221 | 7.0 | 22.6 | 0.00 | 0.10 | 0.10 | 97 | 1007.5 |
| 20260507023538 | 52 | 175 | 7.0 | 16.5 | 0.00 | 0.10 | 0.10 | 96 | 1007.6 |
| 20260507023101 | 52 | 200 | 7.8 | 16.5 | 0.00 | 0.10 | 0.10 | 97 | 1007.6 |
| 20260507022538 | 52 | 171 | 7.0 | 14.8 | 0.00 | 0.10 | 0.10 | 96 | 1007.5 |
| 20260507022038 | 52 | 227 | 7.0 | 13.9 | 0.00 | 0.10 | 0.10 | 96 | 1007.6 |
| 20260507021552 | 52 | 216 | 7.0 | 13.9 | 0.00 | 0.10 | 0.10 | 96 | 1007.8 |
| 20260507021036 | 52 | 218 | 5.2 | 17.4 | 0.00 | 0.10 | 0.10 | 96 | 1007.9 |
| 20260507020536 | 52 | 221 | 5.2 | 17.4 | 0.00 | 0.10 | 0.10 | 96 | 1008.0 |
| 20260507020048 | 52 | 190 | 6.1 | 19.1 | 0.00 | 0.10 | 0.10 | 96 | 1008.1 |
| 20260507015534 | 52 | 200 | 7.0 | 19.1 | 0.00 | 0.10 | 0.10 | 96 | 1008.1 |
| 20260507015036 | 53 | 177 | 7.0 | 15.6 | 0.00 | 0.10 | 0.10 | 96 | 1008.0 |
| 20260507014557 | 53 | 192 | 6.1 | 18.2 | 0.00 | 0.10 | 0.10 | 96 | 1007.9 |
| 20260507014037 | 53 | 182 | 7.0 | 18.2 | 0.00 | 0.10 | 0.10 | 96 | 1007.8 |
| 20260507013535 | 52 | 165 | 8.7 | 14.8 | 0.00 | 0.10 | 0.10 | 96 | 1007.9 |
| 20260507013109 | 52 | 192 | 7.0 | 15.6 | 0.00 | 0.10 | 0.10 | 96 | 1008.1 |
| 20260507012536 | 52 | 257 | 6.1 | 15.6 | 0.00 | 0.10 | 0.10 | 96 | 1008.1 |
| 20260507012036 | 52 | 233 | 7.0 | 15.6 | 0.00 | 0.10 | 0.10 | 96 | 1008.1 |
| 20260507011549 | 52 | 188 | 7.0 | 16.5 | 0.00 | 0.10 | 0.10 | 96 | 1008.2 |
| 20260507011036 | 52 | 174 | 6.1 | 16.5 | 0.00 | 0.10 | 0.10 | 96 | 1008.4 |
| 20260507010536 | 52 | 185 | 7.0 | 16.5 | 0.00 | 0.10 | 0.10 | 96 | 1008.5 |
| 20260507010042 | 52 | 217 | 7.0 | 16.5 | 0.00 | 0.10 | 0.10 | 96 | 1008.6 |
| 20260507005534 | 53 | 162 | 6.1 | 16.5 | 0.00 | 0.10 | 0.10 | 96 | 1008.5 |
| 20260507005036 | 53 | 184 | 6.1 | 16.5 | 0.00 | 0.10 | 0.10 | 96 | 1008.4 |
| 20260507004540 | 53 | 182 | 5.2 | 15.6 | 0.00 | 0.10 | 0.10 | 96 | 1008.6 |
| 20260507004036 | 53 | 215 | 6.1 | 15.6 | 0.00 | 0.10 | 0.10 | 96 | 1008.4 |
| 20260507003536 | 53 | 211 | 6.1 | 15.6 | 0.00 | 0.10 | 0.10 | 96 | 1008.5 |
| 20260507003042 | 53 | 195 | 5.2 | 14.8 | 0.00 | 0.10 | 0.10 | 96 | 1008.3 |
| 20260507002536 | 53 | 193 | 7.0 | 14.8 | 0.00 | 0.10 | 0.10 | 96 | 1008.2 |
| 20260507002036 | 53 | 191 | 7.0 | 14.8 | 0.00 | 0.10 | 0.10 | 96 | 1008.1 |
| 20260507001555 | 53 | 167 | 6.1 | 14.8 | 0.00 | 0.10 | 0.10 | 96 | 1008.2 |
| 20260507001035 | 53 | 194 | 6.1 | 15.6 | 0.00 | 0.10 | 0.10 | 96 | 1008.2 |
| 20260507000535 | 53 | 190 | 6.1 | 14.8 | 0.00 | 0.10 | 0.10 | 96 | 1008.2 |
| 20260507000051 | 53 | 189 | 7.0 | 14.8 | 0.00 | 0.10 | 0.10 | 96 | 1008.2 |
| 20260506235537 | 53 | 176 | 5.2 | 17.4 | 0.00 | 0.10 | 0.10 | 96 | 1008.2 |
| 20260506235035 | 53 | 178 | 4.3 | 17.4 | 0.00 | 0.10 | 0.10 | 96 | 1008.3 |
| 20260506234541 | 53 | 177 | 5.2 | 21.7 | 0.00 | 0.10 | 0.10 | 95 | 1008.3 |
| 20260506234038 | 53 | 199 | 6.1 | 21.7 | 0.00 | 0.10 | 0.10 | 96 | 1008.3 |
| 20260506233539 | 53 | 227 | 7.0 | 13.9 | 0.00 | 0.10 | 0.10 | 96 | 1008.3 |
| 20260506233048 | 53 | 184 | 6.1 | 13.9 | 0.00 | 0.10 | 0.10 | 95 | 1008.2 |
| 20260506232536 | 53 | 180 | 6.1 | 13.0 | 0.00 | 0.10 | 0.10 | 95 | 1008.2 |
| 20260506232035 | 53 | 184 | 6.1 | 12.2 | 0.00 | 0.10 | 0.10 | 95 | 1008.2 |
| 20260506231547 | 53 | 211 | 7.0 | 13.9 | 0.00 | 0.10 | 0.10 | 96 | 1008.2 |
| 20260506231034 | 53 | 151 | 6.1 | 13.9 | 0.01 | 0.10 | 0.10 | 95 | 1008.1 |
| 20260506230536 | 53 | 198 | 6.1 | 12.2 | 0.05 | 0.10 | 0.10 | 95 | 1008.2 |
| 20260506230045 | 53 | 183 | 7.0 | 12.2 | 0.06 | 0.10 | 0.10 | 95 | 1008.2 |
| 20260506225539 | 53 | 186 | 6.1 | 18.2 | 0.07 | 0.10 | 0.10 | 95 | 1008.2 |
| 20260506225039 | 54 | 161 | 7.0 | 19.1 | 0.08 | 0.10 | 0.10 | 95 | 1008.2 |
| 20260506224543 | 54 | 169 | 8.7 | 19.1 | 0.08 | 0.10 | 0.10 | 95 | 1008.2 |
| 20260506224037 | 54 | 201 | 7.8 | 18.2 | 0.09 | 0.10 | 0.10 | 95 | 1008.2 |
| 20260506223537 | 54 | 167 | 7.0 | 17.4 | 0.09 | 0.10 | 0.10 | 95 | 1008.1 |
| 20260506223058 | 54 | 166 | 7.8 | 19.1 | 0.10 | 0.10 | 0.10 | 95 | 1008.0 |
| 20260506222538 | 54 | 187 | 9.6 | 18.2 | 0.10 | 0.10 | 0.10 | 95 | 1008.0 |
| 20260506222037 | 54 | 202 | 7.0 | 19.1 | 0.10 | 0.10 | 0.10 | 94 | 1008.0 |
| 20260506221549 | 54 | 176 | 9.6 | 19.1 | 0.10 | 0.10 | 0.10 | 94 | 1008.0 |
| 20260506221037 | 54 | 165 | 8.7 | 20.0 | 0.09 | 0.09 | 0.09 | 94 | 1008.1 |
| 20260506220537 | 54 | 193 | 8.7 | 20.0 | 0.05 | 0.05 | 0.05 | 94 | 1008.3 |
| 20260506220049 | 54 | 201 | 9.6 | 18.2 | 0.03 | 0.03 | 0.03 | 94 | 1008.2 |
| 20260506215537 | 54 | 148 | 7.8 | 22.6 | 0.02 | 0.02 | 0.02 | 93 | 1008.5 |
| 20260506215037 | 54 | 205 | 7.0 | 22.6 | 0.02 | 0.02 | 0.02 | 93 | 1008.5 |
| 20260506214545 | 55 | 193 | 7.0 | 19.1 | 0.02 | 0.02 | 0.02 | 92 | 1008.6 |
| 20260506214037 | 55 | 217 | 6.1 | 19.1 | 0.01 | 0.01 | 0.01 | 93 | 1008.5 |
| 20260506213535 | 55 | 248 | 7.0 | 18.2 | 0.01 | 0.01 | 0.01 | 92 | 1008.6 |
| 20260506213050 | 55 | 222 | 7.8 | 17.4 | 0.00 | 0.00 | 0.00 | 91 | 1008.8 |
| 20260506212538 | 55 | 202 | 8.7 | 17.4 | 0.00 | 0.00 | 0.00 | 91 | 1008.7 |
| 20260506212040 | 55 | 159 | 8.7 | 16.5 | 0.00 | 0.00 | 0.00 | 91 | 1008.8 |
| 20260506211550 | 55 | 198 | 8.7 | 18.2 | 0.00 | 0.00 | 0.00 | 91 | 1008.6 |
| 20260506211038 | 55 | 188 | 8.7 | 19.1 | 0.00 | 0.00 | 0.00 | 90 | 1008.8 |
| 20260506210539 | 55 | 180 | 8.7 | 19.1 | 0.00 | 0.00 | 0.00 | 90 | 1008.6 |
| 20260506210048 | 55 | 206 | 8.7 | 26.9 | 0.00 | 0.00 | 0.00 | 90 | 1008.7 |
| 20260506205535 | 55 | 209 | 7.8 | 26.9 | 0.00 | 0.00 | 0.00 | 90 | 1008.6 |
| 20260506205036 | 55 | 144 | 7.8 | 17.4 | 0.00 | 0.00 | 0.00 | 91 | 1008.7 |
| 20260506204546 | 55 | 182 | 5.2 | 17.4 | 0.00 | 0.00 | 0.00 | 91 | 1008.7 |
| 20260506204037 | 55 | 138 | 8.7 | 21.7 | 0.00 | 0.00 | 0.00 | 91 | 1008.7 |
| 20260506203537 | 55 | 135 | 8.7 | 21.7 | 0.00 | 0.00 | 0.00 | 91 | 1008.7 |
| 20260506203047 | 55 | 192 | 8.7 | 16.5 | 0.00 | 0.00 | 0.00 | 91 | 1008.6 |
| 20260506202536 | 55 | 159 | 9.6 | 16.5 | 0.00 | 0.00 | 0.00 | 91 | 1008.8 |
| 20260506202037 | 55 | 172 | 8.7 | 19.1 | 0.00 | 0.00 | 0.00 | 91 | 1008.9 |
| 20260506201547 | 55 | 184 | 8.7 | 19.1 | 0.00 | 0.00 | 0.00 | 91 | 1008.8 |
| 20260506201035 | 55 | 177 | 7.8 | 15.6 | 0.00 | 0.00 | 0.00 | 91 | 1008.8 |
| 20260506200536 | 55 | 194 | 7.0 | 19.1 | 0.00 | 0.00 | 0.00 | 91 | 1009.0 |
| 20260506200130 | 55 | 200 | 9.6 | 19.1 | 0.00 | 0.00 | 0.00 | 91 | 1009.1 |
| 20260506195537 | 55 | 190 | 7.0 | 18.2 | 0.00 | 0.00 | 0.00 | 91 | 1009.3 |
| 20260506195038 | 55 | 227 | 7.8 | 18.2 | 0.00 | 0.00 | 0.00 | 91 | 1009.2 |
| 20260506194550 | 55 | 177 | 7.8 | 18.2 | 0.00 | 0.00 | 0.00 | 91 | 1009.3 |
| 20260506194036 | 55 | 211 | 8.7 | 18.2 | 0.00 | 0.00 | 0.00 | 91 | 1009.3 |
| 20260506193540 | 55 | 182 | 8.7 | 25.2 | 0.00 | 0.00 | 0.00 | 90 | 1009.5 |
| 20260506193046 | 55 | 204 | 7.8 | 25.2 | 0.00 | 0.00 | 0.00 | 89 | 1009.5 |
| 20260506192538 | 55 | 157 | 7.0 | 16.5 | 0.00 | 0.00 | 0.00 | 89 | 1009.6 |
| 20260506192038 | 55 | 171 | 7.8 | 17.4 | 0.00 | 0.00 | 0.00 | 88 | 1009.6 |
| 20260506191547 | 56 | 153 | 7.0 | 17.4 | 0.00 | 0.00 | 0.00 | 88 | 1009.6 |
| 20260506191037 | 56 | 186 | 7.8 | 21.7 | 0.00 | 0.00 | 0.00 | 88 | 1009.7 |
| 20260506190538 | 56 | 227 | 9.6 | 21.7 | 0.00 | 0.00 | 0.00 | 87 | 1009.8 |
| 20260506190046 | 56 | 196 | 7.8 | 18.2 | 0.00 | 0.00 | 0.00 | 87 | 1009.9 |
| 20260506185538 | 56 | 186 | 7.8 | 18.2 | 0.00 | 0.00 | 0.00 | 87 | 1010.0 |
| 20260506185039 | 56 | 208 | 9.6 | 17.4 | 0.00 | 0.00 | 0.00 | 86 | 1009.9 |
| 20260506184550 | 56 | 230 | 9.6 | 20.0 | 0.00 | 0.00 | 0.00 | 87 | 1009.9 |
| 20260506184037 | 56 | 188 | 8.7 | 20.0 | 0.00 | 0.00 | 0.00 | 87 | 1009.8 |
| 20260506183538 | 56 | 182 | 9.6 | 20.0 | 0.00 | 0.00 | 0.00 | 87 | 1009.9 |
| 20260506183052 | 56 | 197 | 9.6 | 20.0 | 0.00 | 0.00 | 0.00 | 87 | 1010.0 |
| 20260506182537 | 56 | 157 | 10.4 | 19.1 | 0.00 | 0.00 | 0.00 | 87 | 1010.0 |
| 20260506182037 | 56 | 168 | 8.7 | 20.0 | 0.00 | 0.00 | 0.00 | 87 | 1010.1 |
| 20260506181549 | 56 | 182 | 8.7 | 20.0 | 0.00 | 0.00 | 0.00 | 86 | 1010.1 |
| 20260506181037 | 57 | 200 | 8.7 | 18.2 | 0.00 | 0.00 | 0.00 | 86 | 1010.2 |
| 20260506180538 | 57 | 188 | 8.7 | 21.7 | 0.00 | 0.00 | 0.00 | 86 | 1010.3 |
| 20260506180049 | 57 | 215 | 7.8 | 21.7 | 0.00 | 0.00 | 0.00 | 86 | 1010.3 |
| 20260506175535 | 57 | 200 | 9.6 | 26.9 | 0.00 | 0.00 | 0.00 | 86 | 1010.5 |
| 20260506175037 | 57 | 180 | 11.3 | 26.9 | 0.00 | 0.00 | 0.00 | 86 | 1010.6 |
| 20260506174547 | 57 | 202 | 8.7 | 20.0 | 0.00 | 0.00 | 0.00 | 86 | 1010.7 |
| 20260506174039 | 57 | 188 | 10.4 | 23.5 | 0.00 | 0.00 | 0.00 | 86 | 1010.9 |
| 20260506173538 | 57 | 201 | 10.4 | 23.5 | 0.00 | 0.00 | 0.00 | 86 | 1010.9 |
| 20260506173053 | 57 | 218 | 10.4 | 19.1 | 0.00 | 0.00 | 0.00 | 86 | 1011.0 |
| 20260506172536 | 57 | 197 | 10.4 | 20.9 | 0.00 | 0.00 | 0.00 | 86 | 1010.8 |
| 20260506172038 | 57 | 188 | 9.6 | 20.9 | 0.00 | 0.00 | 0.00 | 86 | 1011.1 |
| 20260506171557 | 57 | 213 | 9.6 | 20.9 | 0.00 | 0.00 | 0.00 | 86 | 1011.1 |
| 20260506171038 | 57 | 192 | 8.7 | 20.9 | 0.00 | 0.00 | 0.00 | 86 | 1011.2 |
| 20260506170538 | 57 | 208 | 10.4 | 20.9 | 0.00 | 0.00 | 0.00 | 85 | 1011.1 |
| 20260506170042 | 58 | 192 | 8.7 | 20.9 | 0.00 | 0.00 | 0.00 | 84 | 1011.1 |
| 20260506165537 | 58 | 196 | 9.6 | 25.2 | 0.00 | 0.00 | 0.00 | 84 | 1011.2 |
| 20260506165039 | 58 | 220 | 8.7 | 26.9 | 0.00 | 0.00 | 0.00 | 84 | 1011.3 |
| 20260506164542 | 58 | 189 | 10.4 | 26.9 | 0.00 | 0.00 | 0.00 | 85 | 1011.4 |
| 20260506164037 | 58 | 221 | 11.3 | 24.3 | 0.00 | 0.00 | 0.00 | 84 | 1011.3 |
| 20260506163537 | 58 | 177 | 7.8 | 18.2 | 0.00 | 0.00 | 0.00 | 85 | 1011.7 |
| 20260506163050 | 58 | 204 | 9.6 | 18.2 | 0.00 | 0.00 | 0.00 | 86 | 1011.7 |
| 20260506162538 | 58 | 166 | 7.0 | 19.1 | 0.00 | 0.00 | 0.00 | 86 | 1011.6 |
| 20260506162039 | 57 | 178 | 9.6 | 20.0 | 0.00 | 0.00 | 0.00 | 86 | 1011.7 |
| 20260506161553 | 57 | 187 | 8.7 | 20.9 | 0.00 | 0.00 | 0.00 | 86 | 1011.6 |
| 20260506161035 | 57 | 179 | 9.6 | 20.9 | 0.00 | 0.00 | 0.00 | 86 | 1011.7 |
| 20260506160540 | 57 | 186 | 10.4 | 19.1 | 0.00 | 0.00 | 0.00 | 86 | 1011.7 |
| 20260506160046 | 57 | 173 | 7.8 | 18.2 | 0.00 | 0.00 | 0.00 | 86 | 1011.9 |
| 20260506155538 | 57 | 178 | 7.8 | 20.9 | 0.00 | 0.00 | 0.00 | 85 | 1011.9 |
| 20260506155034 | 57 | 141 | 11.3 | 20.9 | 0.00 | 0.00 | 0.00 | 84 | 1012.0 |
| 20260506154547 | 58 | 184 | 8.7 | 18.2 | 0.00 | 0.00 | 0.00 | 84 | 1012.1 |
| 20260506154038 | 59 | 213 | 9.6 | 23.5 | 0.00 | 0.00 | 0.00 | 84 | 1012.2 |
| 20260506153537 | 59 | 200 | 11.3 | 23.5 | 0.00 | 0.00 | 0.00 | 84 | 1012.2 |
| 20260506153046 | 59 | 185 | 10.4 | 22.6 | 0.00 | 0.00 | 0.00 | 83 | 1012.2 |
| 20260506152538 | 60 | 206 | 10.4 | 22.6 | 0.00 | 0.00 | 0.00 | 83 | 1012.2 |
| 20260506152037 | 60 | 165 | 9.6 | 20.9 | 0.00 | 0.00 | 0.00 | 84 | 1012.0 |
| 20260506151549 | 59 | 205 | 11.3 | 20.9 | 0.00 | 0.00 | 0.00 | 84 | 1012.1 |
| 20260506151038 | 59 | 184 | 9.6 | 21.7 | 0.00 | 0.00 | 0.00 | 84 | 1012.1 |
| 20260506150537 | 59 | 177 | 10.4 | 21.7 | 0.00 | 0.00 | 0.00 | 84 | 1012.1 |
| 20260506150047 | 60 | 173 | 9.6 | 20.0 | 0.00 | 0.00 | 0.00 | 83 | 1012.3 |
| 20260506145535 | 60 | 195 | 7.0 | 17.4 | 0.00 | 0.00 | 0.00 | 85 | 1012.3 |
| 20260506145037 | 59 | 172 | 7.8 | 17.4 | 0.00 | 0.00 | 0.00 | 86 | 1012.5 |
| 20260506144547 | 58 | 205 | 6.1 | 18.2 | 0.00 | 0.00 | 0.00 | 86 | 1012.4 |
| 20260506144037 | 58 | 219 | 7.0 | 18.2 | 0.00 | 0.00 | 0.00 | 86 | 1012.4 |
| 20260506143537 | 58 | 215 | 6.1 | 19.1 | 0.00 | 0.00 | 0.00 | 86 | 1012.4 |
| 20260506143049 | 57 | 167 | 8.7 | 18.2 | 0.00 | 0.00 | 0.00 | 87 | 1012.2 |
| 20260506142538 | 57 | 142 | 7.0 | 21.7 | 0.00 | 0.00 | 0.00 | 87 | 1012.2 |
| 20260506142036 | 57 | 202 | 11.3 | 21.7 | 0.00 | 0.00 | 0.00 | 85 | 1012.2 |
| 20260506141549 | 58 | 194 | 10.4 | 21.7 | 0.00 | 0.00 | 0.00 | 85 | 1012.1 |
| 20260506141036 | 58 | 186 | 7.8 | 20.0 | 0.00 | 0.00 | 0.00 | 86 | 1011.9 |
| 20260506140538 | 58 | 206 | 7.8 | 19.1 | 0.00 | 0.00 | 0.00 | 86 | 1011.9 |
| 20260506140049 | 57 | 156 | 7.8 | 19.1 | 0.00 | 0.00 | 0.00 | 86 | 1012.1 |
| 20260506135538 | 57 | 170 | 9.6 | 19.1 | 0.00 | 0.00 | 0.00 | 85 | 1011.9 |
| 20260506135037 | 58 | 140 | 5.2 | 14.8 | 0.00 | 0.00 | 0.00 | 86 | 1011.9 |
| 20260506134611 | 58 | 223 | 6.1 | 14.8 | 0.00 | 0.00 | 0.00 | 86 | 1012.3 |
| 20260506134037 | 58 | 242 | 6.1 | 16.5 | 0.00 | 0.00 | 0.00 | 86 | 1012.4 |
| 20260506133535 | 58 | 198 | 5.2 | 16.5 | 0.00 | 0.00 | 0.00 | 86 | 1012.3 |
| 20260506133045 | 58 | 202 | 7.0 | 17.4 | 0.00 | 0.00 | 0.00 | 86 | 1012.4 |
| 20260506132537 | 58 | 244 | 7.8 | 22.6 | 0.00 | 0.00 | 0.00 | 86 | 1012.4 |
| 20260506132035 | 58 | 163 | 7.8 | 22.6 | 0.00 | 0.00 | 0.00 | 86 | 1012.5 |
| 20260506131601 | 58 | 159 | 8.7 | 20.0 | 0.00 | 0.00 | 0.00 | 85 | 1012.4 |
| 20260506131037 | 58 | 181 | 7.8 | 20.0 | 0.00 | 0.00 | 0.00 | 86 | 1012.4 |
| 20260506130536 | 58 | 180 | 7.8 | 18.2 | 0.00 | 0.00 | 0.00 | 86 | 1012.3 |
| 20260506130041 | 58 | 182 | 7.8 | 19.1 | 0.00 | 0.00 | 0.00 | 86 | 1012.3 |
| 20260506125536 | 57 | 152 | 7.0 | 20.9 | 0.00 | 0.00 | 0.00 | 87 | 1012.3 |
| 20260506125035 | 57 | 207 | 8.7 | 20.9 | 0.00 | 0.00 | 0.00 | 88 | 1012.4 |
| 20260506124548 | 57 | 187 | 10.4 | 20.0 | 0.00 | 0.00 | 0.00 | 87 | 1012.4 |
| 20260506124037 | 57 | 225 | 7.8 | 15.6 | 0.00 | 0.00 | 0.00 | 87 | 1012.4 |
| 20260506123537 | 57 | 155 | 7.8 | 15.6 | 0.00 | 0.00 | 0.00 | 88 | 1012.5 |
| 20260506123049 | 57 | 148 | 6.1 | 20.0 | 0.00 | 0.00 | 0.00 | 89 | 1012.4 |
| 20260506122538 | 56 | 213 | 7.8 | 21.7 | 0.00 | 0.00 | 0.00 | 89 | 1012.5 |
| 20260506122039 | 56 | 169 | 8.7 | 21.7 | 0.00 | 0.00 | 0.00 | 89 | 1012.4 |
| 20260506121545 | 56 | 164 | 8.7 | 20.0 | 0.00 | 0.00 | 0.00 | 89 | 1012.3 |
| 20260506121037 | 56 | 162 | 7.8 | 21.7 | 0.00 | 0.00 | 0.00 | 89 | 1012.2 |
| 20260506120537 | 56 | 175 | 8.7 | 21.7 | 0.00 | 0.00 | 0.00 | 89 | 1012.4 |
| 20260506120047 | 56 | 209 | 8.7 | 17.4 | 0.00 | 0.00 | 0.00 | 90 | 1012.4 |
| 20260506115537 | 56 | 184 | 10.4 | 20.9 | 0.00 | 0.00 | 0.00 | 90 | 1012.4 |
| 20260506115036 | 56 | 150 | 8.7 | 20.9 | 0.00 | 0.00 | 0.00 | 90 | 1012.3 |
| 20260506114547 | 56 | 184 | 7.8 | 16.5 | 0.00 | 0.00 | 0.00 | 91 | 1012.4 |
| 20260506114037 | 55 | 171 | 7.8 | 20.0 | 0.00 | 0.00 | 0.00 | 91 | 1012.5 |
| 20260506113537 | 55 | 139 | 9.6 | 20.0 | 0.00 | 0.00 | 0.00 | 91 | 1012.5 |
| 20260506113048 | 55 | 201 | 9.6 | 18.2 | 0.00 | 0.00 | 0.00 | 91 | 1012.4 |
| 20260506112538 | 55 | 199 | 9.6 | 18.2 | 0.00 | 0.00 | 0.00 | 92 | 1012.4 |
| 20260506112036 | 54 | 207 | 7.8 | 18.2 | 0.00 | 0.00 | 0.00 | 93 | 1012.4 |
| 20260506111539 | 54 | 156 | 7.8 | 18.2 | 0.00 | 0.00 | 0.00 | 93 | 1012.4 |
| 20260506111037 | 54 | 224 | 7.8 | 15.6 | 0.00 | 0.00 | 0.00 | 92 | 1012.4 |
| 20260506110537 | 54 | 197 | 7.0 | 16.5 | 0.00 | 0.00 | 0.00 | 92 | 1012.3 |
| 20260506110051 | 54 | 193 | 7.0 | 16.5 | 0.00 | 0.00 | 0.00 | 92 | 1012.3 |
| 20260506105536 | 54 | 216 | 7.0 | 15.6 | 0.00 | 0.00 | 0.00 | 93 | 1012.3 |
| 20260506105038 | 54 | 199 | 6.1 | 18.2 | 0.00 | 0.00 | 0.00 | 93 | 1012.3 |
| 20260506104544 | 54 | 172 | 8.7 | 18.2 | 0.00 | 0.00 | 0.00 | 93 | 1012.3 |
| 20260506104037 | 54 | 174 | 7.8 | 18.2 | 0.00 | 0.00 | 0.00 | 93 | 1012.2 |
| 20260506103537 | 54 | 151 | 8.7 | 19.1 | 0.00 | 0.00 | 0.00 | 93 | 1012.3 |
| 20260506103049 | 54 | 221 | 8.7 | 19.1 | 0.00 | 0.00 | 0.00 | 93 | 1012.3 |
| 20260506102537 | 54 | 200 | 8.7 | 16.5 | 0.00 | 0.00 | 0.00 | 93 | 1012.3 |
| 20260506102039 | 54 | 152 | 7.8 | 18.2 | 0.00 | 0.00 | 0.00 | 94 | 1012.3 |
| 20260506101541 | 54 | 172 | 8.7 | 18.2 | 0.00 | 0.00 | 0.00 | 94 | 1012.2 |
| 20260506101037 | 53 | 185 | 7.0 | 19.1 | 0.00 | 0.00 | 0.00 | 93 | 1012.1 |
| 20260506100537 | 53 | 135 | 8.7 | 20.0 | 0.00 | 0.00 | 0.00 | 93 | 1012.2 |
| 20260506100048 | 53 | 148 | 8.7 | 20.0 | 0.00 | 0.00 | 0.00 | 94 | 1012.2 |
| 20260506095538 | 53 | 196 | 7.8 | 17.4 | 0.00 | 0.00 | 0.00 | 93 | 1012.1 |
| 20260506095042 | 53 | 203 | 8.7 | 23.5 | 0.00 | 0.00 | 0.00 | 93 | 1012.0 |
| 20260506094547 | 53 | 210 | 8.7 | 23.5 | 0.00 | 0.00 | 0.00 | 93 | 1012.0 |
| 20260506094039 | 53 | 196 | 10.4 | 20.9 | 0.00 | 0.00 | 0.00 | 93 | 1011.9 |
| 20260506093537 | 53 | 144 | 8.7 | 20.0 | 0.00 | 0.00 | 0.00 | 94 | 1012.1 |
| 20260506093052 | 53 | 153 | 7.8 | 18.2 | 0.00 | 0.00 | 0.00 | 93 | 1012.1 |
| 20260506092536 | 53 | 188 | 7.8 | 17.4 | 0.00 | 0.00 | 0.00 | 94 | 1012.2 |
| 20260506092039 | 53 | 194 | 8.7 | 17.4 | 0.00 | 0.00 | 0.00 | 94 | 1012.3 |
| 20260506091543 | 53 | 192 | 7.8 | 17.4 | 0.00 | 0.00 | 0.00 | 94 | 1012.4 |
| 20260506091036 | 53 | 188 | 7.8 | 17.4 | 0.00 | 0.00 | 0.00 | 94 | 1012.4 |